Time;durP1;ratioP1;P1;durP2;ratioP2;P2;SDS_P1;SDS_P2;PMS_P1;PMS_P2;Temp;Humidity;BMP_temperature;BMP_pressure;BME280_temperature;BME280_humidity;BME280_pressure;Samples;Min_cycle;Max_cycle;Signal;HPM_P1;HPM_P2
2022/09/13 00:01:00;;;;;;;11.80;5.75;;;20.10;99.90;;;;;;5038116;28;20034;-59
2022/09/13 00:03:27;;;;;;;7.15;4.30;;;20.10;99.90;;;;;;5037925;28;20097;-60
2022/09/13 00:05:54;;;;;;;10.15;5.47;;;20.10;99.90;;;;;;5038196;28;20053;-60
2022/09/13 00:08:21;;;;;;;12.38;4.65;;;20.10;99.90;;;;;;5038259;28;20034;-60
2022/09/13 00:10:48;;;;;;;13.15;4.32;;;20.00;99.90;;;;;;5038367;28;20101;-60
2022/09/13 00:13:15;;;;;;;8.85;4.57;;;19.90;99.90;;;;;;5038487;28;20073;-64
2022/09/13 00:15:43;;;;;;;8.18;4.35;;;19.90;99.90;;;;;;5038241;28;20038;-60
2022/09/13 00:18:10;;;;;;;9.80;4.88;;;19.90;99.90;;;;;;5038192;28;20038;-60
2022/09/13 00:20:37;;;;;;;12.40;4.78;;;19.90;99.90;;;;;;5038520;28;20074;-60
2022/09/13 00:23:04;;;;;;;10.85;4.72;;;19.90;99.90;;;;;;5038014;28;20116;-60
2022/09/13 00:25:31;;;;;;;9.60;4.43;;;19.90;99.90;;;;;;5037885;28;20093;-61
2022/09/13 00:27:57;;;;;;;9.02;4.00;;;19.80;99.90;;;;;;5021441;28;20065;-60
2022/09/13 00:30:24;;;;;;;10.80;5.22;;;19.80;99.90;;;;;;5038151;28;20106;-60
2022/09/13 00:32:51;;;;;;;8.88;4.40;;;19.80;99.90;;;;;;5037810;28;20038;-60
2022/09/13 00:35:18;;;;;;;11.07;4.20;;;19.80;99.90;;;;;;5038232;28;20089;-60
2022/09/13 00:37:45;;;;;;;11.23;3.35;;;19.80;99.90;;;;;;5037722;28;20034;-60
2022/09/13 00:40:13;;;;;;;8.10;3.45;;;19.80;99.90;;;;;;5037472;28;20098;-60
2022/09/13 00:42:40;;;;;;;5.50;3.20;;;19.80;99.90;;;;;;5037897;28;20029;-60
2022/09/13 00:45:09;;;;;;;5.32;3.67;;;19.80;99.90;;;;;;5037880;28;20060;-60
2022/09/13 00:47:40;;;;;;;8.88;4.10;;;19.70;99.90;;;;;;5037729;28;20053;-60
2022/09/13 00:50:27;;;;;;;8.20;3.38;;;19.60;99.90;;;;;;5037046;28;20050;-60
2022/09/13 00:53:03;;;;;;;8.10;3.63;;;19.60;99.90;;;;;;5023959;28;20089;-60
2022/09/13 00:55:42;;;;;;;10.27;4.07;;;19.50;99.90;;;;;;5018076;28;20038;-60
2022/09/13 00:58:14;;;;;;;12.57;4.10;;;19.50;99.90;;;;;;5024922;28;20022;-60
2022/09/13 01:00:41;;;;;;;5.63;3.77;;;19.50;99.90;;;;;;5017503;28;20094;-60
2022/09/13 01:03:10;;;;;;;8.48;4.05;;;19.50;99.90;;;;;;5018103;28;20260;-60
2022/09/13 01:05:42;;;;;;;8.32;3.65;;;19.50;99.90;;;;;;5037039;28;20044;-61
2022/09/13 01:08:14;;;;;;;8.38;3.70;;;19.50;99.90;;;;;;5020942;28;20044;-60
2022/09/13 01:10:42;;;;;;;7.95;4.07;;;19.50;99.90;;;;;;5026657;28;20074;-60
2022/09/13 01:13:30;;;;;;;6.05;2.97;;;19.40;99.90;;;;;;4688119;28;10000101;-60
2022/09/13 01:15:58;;;;;;;28.00;5.32;;;19.40;99.90;;;;;;5022035;28;20068;-60
2022/09/13 01:18:25;;;;;;;8.93;3.60;;;19.30;99.90;;;;;;5036999;28;20060;-61
2022/09/13 01:21:00;;;;;;;11.70;3.45;;;19.30;99.90;;;;;;5037648;28;20021;-59
2022/09/13 01:23:52;;;;;;;9.88;3.45;;;19.30;99.90;;;;;;5037401;28;20119;-61
2022/09/13 01:26:18;;;;;;;6.28;3.40;;;19.30;99.90;;;;;;5028466;28;20089;-59
2022/09/13 01:29:03;;;;;;;5.85;3.30;;;19.20;99.90;;;;;;5037449;28;20393;-59
2022/09/13 01:32:01;;;;;;;10.75;3.65;;;19.10;99.90;;;;;;5027354;28;20044;-59
2022/09/13 01:34:58;;;;;;;9.25;3.65;;;19.10;99.90;;;;;;5036843;28;20033;-58
2022/09/13 01:38:10;;;;;;;5.93;3.83;;;18.90;99.90;;;;;;4980741;28;20093;-59
2022/09/13 01:41:18;;;;;;;6.55;3.22;;;18.90;99.90;;;;;;5015153;28;20042;-60
2022/09/13 01:44:05;;;;;;;6.40;3.95;;;18.90;99.90;;;;;;5033786;28;20105;-59
2022/09/13 01:46:46;;;;;;;7.80;3.10;;;19.00;99.90;;;;;;5016884;28;20034;-60
2022/09/13 01:49:20;;;;;;;5.32;3.45;;;19.00;99.90;;;;;;5036565;28;20034;-59
2022/09/13 01:52:00;;;;;;;9.15;3.50;;;19.00;99.90;;;;;;5014412;28;20030;-59
2022/09/13 01:54:48;;;;;;;7.45;3.15;;;19.00;99.90;;;;;;5021073;28;20037;-59
2022/09/13 01:57:29;;;;;;;11.00;3.60;;;19.00;99.90;;;;;;5026044;28;20030;-59
2022/09/13 02:00:04;;;;;;;9.02;4.28;;;19.00;99.90;;;;;;5036228;28;20109;-59
2022/09/13 02:02:51;;;;;;;8.63;3.95;;;19.00;99.90;;;;;;5036566;28;20105;-59
2022/09/13 02:05:39;;;;;;;7.50;3.53;;;18.90;99.90;;;;;;5036739;28;20057;-59
2022/09/13 02:08:12;;;;;;;8.52;3.92;;;18.90;99.90;;;;;;5035911;28;20102;-60
2022/09/13 02:10:41;;;;;;;7.95;4.13;;;18.80;99.90;;;;;;5033104;28;20093;-59
2022/09/13 02:13:11;;;;;;;8.45;3.85;;;18.80;99.90;;;;;;5016352;28;20091;-59
2022/09/13 02:15:40;;;;;;;9.38;3.47;;;18.80;99.90;;;;;;5019768;28;20026;-60
2022/09/13 02:18:21;;;;;;;5.68;3.63;;;18.80;99.90;;;;;;5016442;28;20082;-59
2022/09/13 02:20:49;;;;;;;5.43;3.40;;;18.80;99.90;;;;;;5023038;28;20106;-58
2022/09/13 02:23:24;;;;;;;8.95;3.85;;;18.80;99.90;;;;;;5035671;28;20058;-59
2022/09/13 02:25:50;;;;;;;7.90;3.65;;;18.90;99.90;;;;;;5016557;28;20093;-59
2022/09/13 02:28:25;;;;;;;8.38;3.60;;;18.90;99.90;;;;;;5016176;28;20077;-59
2022/09/13 02:30:52;;;;;;;9.55;3.33;;;18.90;99.90;;;;;;5030210;28;20057;-59
2022/09/13 02:33:39;;;;;;;6.70;3.90;;;19.00;99.90;;;;;;5016105;28;20086;-59
2022/09/13 02:36:08;;;;;;;14.18;3.22;;;19.10;99.90;;;;;;5019786;28;20093;-57
2022/09/13 02:38:44;;;;;;;6.50;3.00;;;19.10;99.90;;;;;;5024866;28;20042;-59
2022/09/13 02:41:43;;;;;;;7.13;3.47;;;19.20;99.90;;;;;;5020467;28;20046;-59
2022/09/13 02:44:36;;;;;;;7.78;4.30;;;19.20;99.90;;;;;;5028397;28;20097;-59
2022/09/13 02:47:10;;;;;;;8.15;3.58;;;19.30;99.90;;;;;;5036108;28;20064;-59
2022/09/13 02:49:44;;;;;;;9.43;4.13;;;19.30;99.90;;;;;;5035184;28;20089;-59
2022/09/13 02:52:17;;;;;;;6.78;3.72;;;19.30;99.90;;;;;;5035552;28;20048;-59
2022/09/13 02:55:19;;;;;;;9.07;4.30;;;19.40;99.90;;;;;;5039404;28;20101;-58
2022/09/13 02:58:07;;;;;;;8.45;4.18;;;19.40;99.90;;;;;;5020901;28;20120;-59
2022/09/13 03:00:34;;;;;;;8.40;4.45;;;19.50;99.90;;;;;;5040177;28;20098;-59
2022/09/13 03:03:03;;;;;;;6.40;4.00;;;19.50;99.90;;;;;;5022883;28;20029;-59
2022/09/13 03:05:30;;;;;;;8.25;4.22;;;19.50;99.90;;;;;;5019508;28;20042;-58
2022/09/13 03:07:57;;;;;;;10.48;4.88;;;19.50;99.90;;;;;;5031468;28;20068;-60
2022/09/13 03:10:25;;;;;;;10.25;5.43;;;19.50;99.90;;;;;;5036433;28;20105;-60
2022/09/13 03:13:00;;;;;;;6.30;4.00;;;19.40;99.90;;;;;;5039179;28;20093;-59
2022/09/13 03:15:36;;;;;;;8.63;4.70;;;19.40;99.90;;;;;;5039762;28;20025;-60
2022/09/13 03:18:16;;;;;;;11.35;6.07;;;19.40;99.90;;;;;;5038810;28;20080;-60
2022/09/13 03:21:17;;;;;;;8.60;4.70;;;19.40;99.90;;;;;;5039142;28;20109;-59
2022/09/13 03:23:44;;;;;;;10.00;5.13;;;19.40;99.90;;;;;;5017711;28;20029;-60
2022/09/13 03:26:25;;;;;;;7.93;4.50;;;19.40;99.90;;;;;;5039655;28;20034;-62
2022/09/13 03:28:57;;;;;;;9.23;4.25;;;19.40;99.90;;;;;;5033138;28;20066;-59
2022/09/13 03:31:34;;;;;;;10.02;4.82;;;19.40;99.90;;;;;;5037712;28;20105;-59
2022/09/13 03:34:22;;;;;;;7.45;4.90;;;19.40;99.90;;;;;;5018971;28;20031;-59
2022/09/13 03:36:55;;;;;;;8.10;5.47;;;19.40;99.90;;;;;;5019658;28;20097;-59
2022/09/13 03:39:34;;;;;;;7.00;4.65;;;19.40;99.90;;;;;;5038785;28;20057;-60
2022/09/13 03:42:04;;;;;;;9.35;5.53;;;19.50;99.90;;;;;;5019116;28;20207;-59
2022/09/13 03:44:31;;;;;;;8.65;4.35;;;19.50;99.90;;;;;;5033480;28;20041;-59
2022/09/13 03:46:59;;;;;;;6.32;4.40;;;19.50;99.90;;;;;;5019216;28;20090;-60
2022/09/13 03:49:26;;;;;;;7.30;4.50;;;19.50;99.90;;;;;;5022182;28;20117;-60
2022/09/13 03:51:53;;;;;;;8.10;4.75;;;19.50;99.90;;;;;;5038329;28;20034;-60
2022/09/13 03:54:31;;;;;;;8.20;5.28;;;19.50;99.90;;;;;;5038815;28;20105;-59
2022/09/13 03:57:15;;;;;;;7.07;4.43;;;19.40;99.90;;;;;;5038870;28;20085;-59
2022/09/13 03:59:47;;;;;;;10.88;5.28;;;19.40;99.90;;;;;;5037971;28;20038;-59
2022/09/13 04:02:16;;;;;;;9.82;5.38;;;19.40;99.90;;;;;;5002800;28;20066;-59
2022/09/13 04:04:43;;;;;;;8.13;4.45;;;19.40;99.90;;;;;;5030980;28;20041;-59
2022/09/13 04:07:12;;;;;;;6.85;5.60;;;19.30;99.90;;;;;;5038536;28;20125;-63
2022/09/13 04:09:39;;;;;;;9.40;5.85;;;19.40;99.90;;;;;;5038648;28;20086;-60
2022/09/13 04:12:06;;;;;;;9.27;5.28;;;19.30;99.90;;;;;;5038595;28;20049;-59
2022/09/13 04:14:33;;;;;;;7.68;5.55;;;19.30;99.90;;;;;;5038643;28;20053;-60
2022/09/13 04:16:59;;;;;;;10.13;6.65;;;19.30;99.90;;;;;;5038718;28;20068;-60
2022/09/13 04:19:26;;;;;;;7.50;4.90;;;19.20;99.90;;;;;;5038593;28;20022;-60
2022/09/13 04:21:53;;;;;;;5.93;5.32;;;19.20;99.90;;;;;;5038237;28;20044;-62
2022/09/13 04:24:22;;;;;;;5.93;5.03;;;19.20;99.90;;;;;;5038253;28;20030;-59
2022/09/13 04:26:53;;;;;;;10.20;4.47;;;19.30;99.90;;;;;;5038327;28;20061;-60
2022/09/13 04:29:20;;;;;;;5.60;4.57;;;19.30;99.90;;;;;;5037133;28;20037;-60
2022/09/13 04:31:47;;;;;;;5.40;4.03;;;19.30;99.90;;;;;;5038101;28;20037;-60
2022/09/13 04:34:16;;;;;;;6.35;3.97;;;19.30;99.90;;;;;;5037877;28;20056;-60
2022/09/13 04:36:43;;;;;;;7.50;5.05;;;19.30;99.90;;;;;;5037564;28;20029;-60
2022/09/13 04:39:10;;;;;;;7.55;4.55;;;19.30;99.90;;;;;;5038349;28;20090;-60
2022/09/13 04:41:37;;;;;;;6.85;4.13;;;19.30;99.90;;;;;;5037847;28;20074;-59
2022/09/13 04:44:04;;;;;;;5.97;4.63;;;19.30;99.90;;;;;;5018288;28;20093;-58
2022/09/13 04:46:30;;;;;;;6.90;5.15;;;19.30;99.90;;;;;;5032346;28;20053;-59
2022/09/13 04:48:57;;;;;;;5.75;4.25;;;19.30;99.90;;;;;;5038006;28;20040;-59
2022/09/13 04:51:24;;;;;;;4.95;4.35;;;19.20;99.90;;;;;;5036785;28;20125;-58
2022/09/13 04:53:55;;;;;;;6.68;4.68;;;19.20;99.90;;;;;;5037600;28;20026;-59
2022/09/13 04:56:23;;;;;;;5.45;4.10;;;19.20;99.90;;;;;;5036966;28;20053;-59
2022/09/13 04:58:50;;;;;;;5.20;4.30;;;19.30;99.90;;;;;;5031482;28;20030;-58
2022/09/13 05:01:17;;;;;;;5.55;4.35;;;19.20;99.90;;;;;;5037363;28;20905;-59
2022/09/13 05:03:44;;;;;;;7.50;4.25;;;19.20;99.90;;;;;;5037668;28;20057;-59
2022/09/13 05:06:12;;;;;;;8.05;4.43;;;19.20;99.90;;;;;;5036816;28;20066;-60
2022/09/13 05:08:38;;;;;;;8.80;4.38;;;19.20;99.90;;;;;;5037394;28;20094;-59
2022/09/13 05:11:06;;;;;;;5.05;3.85;;;19.20;99.90;;;;;;5037201;28;20054;-58
2022/09/13 05:13:34;;;;;;;6.50;4.05;;;19.20;99.90;;;;;;5036907;28;20030;-59
2022/09/13 05:16:04;;;;;;;5.80;4.68;;;19.20;99.90;;;;;;5036495;28;20097;-59
2022/09/13 05:18:32;;;;;;;5.03;4.32;;;19.20;99.90;;;;;;5034268;28;20037;-60
2022/09/13 05:20:59;;;;;;;6.32;3.97;;;19.20;99.90;;;;;;5037205;28;20065;-60
2022/09/13 05:23:27;;;;;;;4.55;4.10;;;19.20;99.90;;;;;;5036781;28;20089;-60
2022/09/13 05:25:54;;;;;;;7.32;4.97;;;19.20;99.90;;;;;;5037173;28;20060;-60
2022/09/13 05:28:22;;;;;;;8.27;4.60;;;19.10;99.90;;;;;;5035523;28;20042;-59
2022/09/13 05:30:59;;;;;;;4.03;3.47;;;19.10;99.90;;;;;;5037287;28;20097;-60
2022/09/13 05:33:27;;;;;;;5.38;4.28;;;19.10;99.90;;;;;;5036709;28;20058;-60
2022/09/13 05:35:54;;;;;;;8.05;4.32;;;19.10;99.90;;;;;;5036755;28;20057;-60
2022/09/13 05:38:20;;;;;;;4.75;4.13;;;19.10;99.90;;;;;;5036648;28;20097;-60
2022/09/13 05:40:48;;;;;;;5.43;4.40;;;19.10;99.90;;;;;;5036934;28;20029;-60
2022/09/13 05:43:14;;;;;;;5.90;3.75;;;19.10;99.90;;;;;;5036256;28;20034;-60
2022/09/13 05:45:41;;;;;;;5.45;4.38;;;19.10;99.90;;;;;;5036921;28;20088;-60
2022/09/13 05:48:11;;;;;;;6.88;4.10;;;19.10;99.90;;;;;;5036665;28;20121;-60
2022/09/13 05:50:41;;;;;;;12.65;4.93;;;19.10;99.90;;;;;;5037021;28;20034;-60
2022/09/13 05:53:23;;;;;;;4.33;3.67;;;19.10;99.90;;;;;;5036495;28;20054;-60
2022/09/13 05:55:50;;;;;;;6.78;3.70;;;19.10;99.90;;;;;;5034288;28;20093;-60
2022/09/13 05:58:17;;;;;;;5.57;4.18;;;19.10;99.90;;;;;;4685121;28;10000541;-59
2022/09/13 06:00:44;;;;;;;12.82;4.53;;;19.10;99.90;;;;;;5030782;28;20112;-59
2022/09/13 06:03:11;;;;;;;9.00;4.88;;;19.10;99.90;;;;;;5035729;28;20061;-59
2022/09/13 06:05:38;;;;;;;7.07;4.75;;;19.10;99.90;;;;;;5036146;28;20097;-59
2022/09/13 06:08:04;;;;;;;8.00;5.57;;;19.10;99.90;;;;;;5035781;28;20391;-60
2022/09/13 06:10:32;;;;;;;7.18;5.18;;;19.00;99.90;;;;;;5033579;28;20114;-60
2022/09/13 06:12:59;;;;;;;6.43;4.97;;;19.10;99.90;;;;;;5035889;28;20078;-59
2022/09/13 06:15:26;;;;;;;7.50;5.32;;;19.00;99.90;;;;;;5035455;28;20037;-60
2022/09/13 06:17:53;;;;;;;7.75;5.43;;;19.00;99.90;;;;;;5035365;28;20030;-59
2022/09/13 06:20:20;;;;;;;8.20;4.80;;;19.00;99.90;;;;;;5035888;28;20018;-59
2022/09/13 06:22:47;;;;;;;11.07;5.25;;;19.00;99.90;;;;;;5035473;28;20050;-60
2022/09/13 06:25:15;;;;;;;7.25;5.25;;;19.00;99.90;;;;;;5036193;28;20030;-60
2022/09/13 06:27:42;;;;;;;7.95;5.40;;;19.00;99.90;;;;;;5026840;28;20093;-60
2022/09/13 06:30:11;;;;;;;7.32;5.95;;;19.00;99.90;;;;;;5036145;28;20037;-59
2022/09/13 06:32:38;;;;;;;6.55;5.25;;;19.00;99.90;;;;;;5040121;28;20046;-58
2022/09/13 06:35:06;;;;;;;6.72;5.03;;;19.00;99.90;;;;;;5039050;28;20045;-59
2022/09/13 06:37:33;;;;;;;6.25;5.60;;;19.00;99.90;;;;;;5039775;28;20097;-60
2022/09/13 06:40:00;;;;;;;15.05;5.78;;;19.00;99.90;;;;;;5039238;28;20025;-59
2022/09/13 06:42:26;;;;;;;7.63;5.63;;;19.10;99.90;;;;;;5038128;28;20046;-59
2022/09/13 06:44:53;;;;;;;6.15;5.32;;;19.10;99.90;;;;;;5039501;28;20093;-58
2022/09/13 06:47:20;;;;;;;13.27;6.18;;;19.10;99.90;;;;;;5039482;28;20038;-59
2022/09/13 06:49:47;;;;;;;6.10;4.80;;;19.10;99.90;;;;;;5038919;28;20094;-60
2022/09/13 06:52:13;;;;;;;8.20;5.35;;;19.20;99.90;;;;;;5038627;28;20037;-59
2022/09/13 06:54:40;;;;;;;5.90;4.93;;;19.20;99.90;;;;;;5036824;28;20095;-59
2022/09/13 06:57:07;;;;;;;6.20;5.57;;;19.20;99.90;;;;;;5037611;28;20101;-60
2022/09/13 06:59:34;;;;;;;5.05;4.03;;;19.20;99.90;;;;;;5029514;28;20093;-60
2022/09/13 07:02:00;;;;;;;8.50;5.90;;;19.10;99.90;;;;;;5037221;28;20034;-59
2022/09/13 07:04:31;;;;;;;9.60;5.10;;;19.10;99.90;;;;;;5037532;28;20064;-59
2022/09/13 07:06:58;;;;;;;7.97;5.75;;;19.10;99.90;;;;;;5037159;28;20053;-59
2022/09/13 07:09:26;;;;;;;10.63;5.55;;;19.10;99.90;;;;;;5038240;28;20026;-58
2022/09/13 07:11:54;;;;;;;10.27;5.57;;;19.10;99.90;;;;;;5037984;28;20098;-58
2022/09/13 07:14:22;;;;;;;6.55;5.03;;;19.00;99.90;;;;;;5020962;28;20030;-59
2022/09/13 07:16:50;;;;;;;10.85;5.70;;;19.00;99.90;;;;;;5037215;28;20058;-59
2022/09/13 07:19:19;;;;;;;12.05;5.65;;;18.90;99.90;;;;;;5038671;28;20049;-59
2022/09/13 07:21:46;;;;;;;7.65;5.03;;;18.90;99.90;;;;;;5037724;28;20048;-60
2022/09/13 07:24:13;;;;;;;7.00;4.90;;;18.90;99.90;;;;;;5037301;28;20034;-60
2022/09/13 07:26:41;;;;;;;8.82;3.40;;;18.90;99.90;;;;;;5036874;28;20325;-59
2022/09/13 07:29:10;;;;;;;5.45;3.25;;;18.90;99.90;;;;;;5034666;28;20053;-61
2022/09/13 07:31:38;;;;;;;11.82;4.22;;;18.80;99.90;;;;;;5037014;28;20072;-59
2022/09/13 07:34:07;;;;;;;13.30;3.35;;;18.90;99.90;;;;;;5037656;28;20029;-59
2022/09/13 07:36:34;;;;;;;6.70;3.60;;;18.90;99.90;;;;;;5037743;28;20057;-59
2022/09/13 07:39:02;;;;;;;4.85;2.95;;;18.90;99.90;;;;;;5036875;28;20045;-59
2022/09/13 07:41:29;;;;;;;10.00;4.32;;;18.90;99.90;;;;;;5038321;28;20049;-60
2022/09/13 07:43:56;;;;;;;6.78;3.33;;;18.80;99.90;;;;;;5037733;28;20094;-58
2022/09/13 07:46:24;;;;;;;5.55;3.50;;;18.80;99.90;;;;;;5037546;28;20045;-59
2022/09/13 07:48:52;;;;;;;6.18;3.20;;;18.90;99.90;;;;;;5037439;28;20068;-59
2022/09/13 07:51:20;;;;;;;6.47;2.70;;;18.90;99.90;;;;;;5038224;28;20030;-60
2022/09/13 07:53:48;;;;;;;5.78;3.10;;;18.90;99.90;;;;;;5036697;28;20097;-59
2022/09/13 07:56:32;;;;;;;17.48;2.92;;;18.90;99.90;;;;;;5037811;28;20102;-60
2022/09/13 07:59:00;;;;;;;9.43;3.25;;;18.80;99.90;;;;;;5025301;28;20076;-59
2022/09/13 08:01:33;;;;;;;5.43;3.22;;;18.80;99.90;;;;;;4784663;28;10000380;-60
2022/09/13 08:04:05;;;;;;;9.23;3.22;;;18.80;99.90;;;;;;5035072;28;20226;-60
2022/09/13 08:06:33;;;;;;;9.88;3.65;;;18.70;99.90;;;;;;5037739;28;20084;-60
2022/09/13 08:09:00;;;;;;;4.75;3.15;;;18.70;99.90;;;;;;5036849;28;20057;-59
2022/09/13 08:11:29;;;;;;;5.93;3.33;;;18.70;99.90;;;;;;5037694;28;20101;-59
2022/09/13 08:13:56;;;;;;;8.77;3.75;;;18.60;99.90;;;;;;5036763;28;20053;-59
2022/09/13 08:16:23;;;;;;;6.95;3.05;;;18.60;99.90;;;;;;5037060;28;20057;-59
2022/09/13 08:18:52;;;;;;;4.70;3.20;;;18.60;99.90;;;;;;5037620;28;20049;-59
2022/09/13 08:21:19;;;;;;;7.07;3.25;;;18.60;99.90;;;;;;5037433;28;20041;-59
2022/09/13 08:23:46;;;;;;;4.60;2.80;;;18.60;99.90;;;;;;5037224;28;20036;-60
2022/09/13 08:26:13;;;;;;;5.25;3.05;;;18.60;99.90;;;;;;5036804;28;20053;-60
2022/09/13 08:28:41;;;;;;;8.73;4.28;;;18.60;99.90;;;;;;5035376;28;20030;-58
2022/09/13 08:31:16;;;;;;;11.50;4.93;;;18.60;99.90;;;;;;5037413;28;20038;-59
2022/09/13 08:33:44;;;;;;;11.48;4.38;;;18.60;99.90;;;;;;5037006;28;20033;-60
2022/09/13 08:36:12;;;;;;;6.43;4.18;;;18.60;99.90;;;;;;5036800;28;20060;-60
2022/09/13 08:38:45;;;;;;;7.50;3.83;;;18.70;99.90;;;;;;5036451;28;20041;-59
2022/09/13 08:41:43;;;;;;;7.50;4.72;;;18.70;99.90;;;;;;5037070;28;20026;-60
2022/09/13 08:44:25;;;;;;;8.27;4.55;;;18.70;99.90;;;;;;5033748;28;20053;-60
2022/09/13 08:47:06;;;;;;;11.18;4.63;;;18.80;99.90;;;;;;5037240;28;20034;-59
2022/09/13 08:49:37;;;;;;;15.55;5.20;;;18.90;99.90;;;;;;5020454;28;20034;-60
2022/09/13 08:52:13;;;;;;;12.15;4.85;;;18.80;99.90;;;;;;5036652;28;20030;-59
2022/09/13 08:54:40;;;;;;;9.75;5.35;;;18.90;99.90;;;;;;5037334;28;20101;-59
2022/09/13 08:57:20;;;;;;;16.23;7.75;;;19.00;99.90;;;;;;5019208;28;20076;-59
2022/09/13 08:59:56;;;;;;;12.95;6.80;;;19.00;99.90;;;;;;5035807;28;20049;-60
2022/09/13 09:02:54;;;;;;;14.05;6.38;;;19.10;99.90;;;;;;5036784;28;20030;-59
2022/09/13 09:05:25;;;;;;;12.77;7.45;;;19.20;99.90;;;;;;5036787;28;20052;-60
2022/09/13 09:08:02;;;;;;;12.52;6.85;;;19.20;99.90;;;;;;5017014;28;20036;-59
2022/09/13 09:10:34;;;;;;;13.05;8.18;;;19.20;99.90;;;;;;5032563;28;20052;-59
2022/09/13 09:13:06;;;;;;;14.07;7.50;;;19.20;99.90;;;;;;5000692;28;20043;-60
2022/09/13 09:15:47;;;;;;;16.25;8.68;;;19.20;99.90;;;;;;5031872;28;20093;-60
2022/09/13 09:18:26;;;;;;;13.00;7.70;;;19.20;99.90;;;;;;5000754;28;20026;-59
2022/09/13 09:20:58;;;;;;;11.10;6.70;;;19.20;99.90;;;;;;5033027;28;20084;-59
2022/09/13 09:23:49;;;;;;;12.73;7.45;;;19.20;99.90;;;;;;5016592;28;20034;-60
2022/09/13 09:26:20;;;;;;;17.30;7.60;;;19.10;99.90;;;;;;5032669;28;20034;-59
2022/09/13 09:28:58;;;;;;;9.98;6.32;;;19.10;99.90;;;;;;5036487;28;20211;-60
2022/09/13 09:31:25;;;;;;;12.93;6.78;;;19.00;99.90;;;;;;5021062;28;20121;-59
2022/09/13 09:34:28;;;;;;;14.00;7.35;;;19.00;99.90;;;;;;5036905;28;20061;-59
2022/09/13 09:37:02;;;;;;;11.30;5.35;;;19.00;99.90;;;;;;4976556;28;20099;-58
2022/09/13 09:39:32;;;;;;;15.18;6.07;;;19.00;99.90;;;;;;5024334;28;20041;-60
2022/09/13 09:41:59;;;;;;;11.65;5.88;;;19.00;99.90;;;;;;5035521;28;20033;-58
2022/09/13 09:44:27;;;;;;;9.80;5.72;;;18.90;99.90;;;;;;5035685;28;20053;-59
2022/09/13 09:47:02;;;;;;;8.07;5.65;;;18.90;99.90;;;;;;5019634;28;20033;-59
2022/09/13 09:50:11;;;;;;;15.93;7.07;;;18.80;99.90;;;;;;5020001;28;20073;-59
2022/09/13 09:53:02;;;;;;;15.10;5.63;;;18.80;99.90;;;;;;5033113;28;20473;-59
2022/09/13 09:55:46;;;;;;;7.78;5.13;;;18.90;99.90;;;;;;5035303;28;20037;-60
2022/09/13 09:58:17;;;;;;;8.85;5.20;;;18.80;99.90;;;;;;5035320;28;20175;-60
2022/09/13 10:01:24;;;;;;;12.45;4.60;;;18.70;99.90;;;;;;5035172;28;20069;-59
2022/09/13 10:04:02;;;;;;;11.00;4.88;;;18.70;99.90;;;;;;5028294;28;20034;-60
2022/09/13 10:06:29;;;;;;;11.57;5.47;;;18.70;99.90;;;;;;5035483;28;20399;-59
2022/09/13 10:09:01;;;;;;;11.57;5.10;;;18.70;99.90;;;;;;5034884;28;20034;-59
2022/09/13 10:11:38;;;;;;;9.48;6.13;;;18.70;99.90;;;;;;5017316;28;20096;-60
2022/09/13 10:14:05;;;;;;;10.95;4.63;;;18.70;99.90;;;;;;5035255;28;20041;-57
2022/09/13 10:16:32;;;;;;;7.45;4.20;;;18.70;99.90;;;;;;5035915;28;20026;-59
2022/09/13 10:19:23;;;;;;;11.07;5.25;;;18.70;99.90;;;;;;5018894;28;20046;-59
2022/09/13 10:21:59;;;;;;;8.15;4.72;;;18.80;99.90;;;;;;4683579;28;10000283;-59
2022/09/13 10:24:28;;;;;;;10.30;4.82;;;18.80;99.90;;;;;;5032138;28;20042;-59
2022/09/13 10:26:55;;;;;;;13.38;5.18;;;18.90;99.90;;;;;;5028182;28;20053;-59
2022/09/13 10:29:22;;;;;;;7.80;4.72;;;18.80;99.90;;;;;;5031487;28;20050;-58
2022/09/13 10:31:49;;;;;;;7.80;4.18;;;18.80;99.90;;;;;;5033241;28;20212;-60
2022/09/13 10:34:27;;;;;;;10.40;4.90;;;18.80;99.90;;;;;;5017834;28;20053;-59
2022/09/13 10:37:18;;;;;;;10.25;5.40;;;18.80;99.90;;;;;;5035172;28;20026;-59
2022/09/13 10:40:07;;;;;;;12.95;4.63;;;18.90;99.90;;;;;;5035362;28;20088;-59
2022/09/13 10:42:34;;;;;;;13.55;5.10;;;19.00;99.90;;;;;;5035200;28;20179;-59
2022/09/13 10:45:05;;;;;;;14.93;5.75;;;19.00;99.90;;;;;;5035377;28;20068;-59
2022/09/13 10:47:42;;;;;;;7.68;4.55;;;19.10;99.90;;;;;;5034937;28;20053;-59
2022/09/13 10:50:17;;;;;;;9.60;5.63;;;19.00;99.90;;;;;;5035133;28;20072;-59
2022/09/13 10:52:45;;;;;;;9.98;5.97;;;19.10;99.90;;;;;;5035651;28;20090;-59
2022/09/13 10:55:18;;;;;;;10.07;5.03;;;19.10;99.90;;;;;;5035898;28;20034;-59
2022/09/13 10:57:46;;;;;;;11.95;6.10;;;19.10;99.90;;;;;;5025337;28;20030;-59
2022/09/13 11:00:29;;;;;;;13.07;6.47;;;19.00;99.90;;;;;;5035437;28;20052;-60
2022/09/13 11:03:02;;;;;;;11.32;6.55;;;19.00;99.90;;;;;;5034615;28;20065;-59
2022/09/13 11:05:38;;;;;;;13.53;6.33;;;19.00;99.90;;;;;;5040845;28;20076;-59
2022/09/13 11:08:20;;;;;;;12.80;6.72;;;19.00;99.90;;;;;;5034847;28;20097;-59
2022/09/13 11:11:06;;;;;;;19.55;6.63;;;19.00;99.90;;;;;;5033928;28;20038;-60
2022/09/13 11:14:08;;;;;;;9.07;5.60;;;19.20;99.90;;;;;;5034609;28;20033;-59
2022/09/13 11:16:51;;;;;;;10.43;6.05;;;19.30;99.90;;;;;;5029054;28;20037;-60
2022/09/13 11:19:34;;;;;;;12.07;6.15;;;19.30;99.90;;;;;;5039206;28;20038;-60
2022/09/13 11:22:39;;;;;;;12.85;6.95;;;19.40;99.90;;;;;;5038827;28;20057;-58
2022/09/13 11:25:13;;;;;;;15.18;7.15;;;19.50;99.90;;;;;;5039020;28;20094;-59
2022/09/13 11:27:39;;;;;;;;;;;19.50;99.90;;;;;;5039111;28;20041;-59
2022/09/13 11:30:12;;;;;;;12.93;6.88;;;19.50;99.90;;;;;;5039115;28;19961;-58
2022/09/13 11:32:51;;;;;;;16.55;7.95;;;19.60;99.90;;;;;;5018892;28;20039;-58
2022/09/13 11:35:29;;;;;;;18.40;9.50;;;19.70;99.90;;;;;;5034710;28;20033;-60
2022/09/13 11:38:34;;;;;;;13.13;7.88;;;19.80;99.90;;;;;;5028915;28;20021;-61
2022/09/13 11:41:28;;;;;;;24.85;9.30;;;19.80;99.90;;;;;;5037879;28;20190;-55
2022/09/13 11:43:58;;;;;;;16.90;8.98;;;19.80;99.90;;;;;;5038619;28;20034;-60
2022/09/13 11:46:38;;;;;;;14.48;8.95;;;19.70;99.90;;;;;;5035933;28;20037;-59
2022/09/13 11:49:20;;;;;;;14.23;8.65;;;19.70;99.90;;;;;;5037827;28;20102;-59
2022/09/13 11:52:02;;;;;;;12.77;7.63;;;19.70;99.90;;;;;;5037042;28;20062;-59
2022/09/13 11:54:41;;;;;;;15.65;8.27;;;19.70;99.90;;;;;;5038424;28;20153;-59
2022/09/13 11:57:40;;;;;;;13.60;8.55;;;19.70;99.90;;;;;;5038040;28;20038;-59
2022/09/13 12:00:23;;;;;;;13.75;8.27;;;19.70;99.90;;;;;;5030162;28;20086;-59
2022/09/13 12:03:11;;;;;;;12.00;7.35;;;19.80;99.90;;;;;;5038005;28;20030;-57
2022/09/13 12:05:44;;;;;;;16.65;8.18;;;19.80;99.90;;;;;;5037725;28;20054;-59
2022/09/13 12:08:45;;;;;;;10.48;7.88;;;19.80;99.90;;;;;;5036603;28;20105;-57
2022/09/13 12:11:42;;;;;;;17.23;9.23;;;19.90;99.90;;;;;;5008527;28;20174;-59
2022/09/13 12:14:21;;;;;;;13.60;8.40;;;19.90;99.90;;;;;;5017951;28;20042;-56
2022/09/13 12:16:53;;;;;;;18.77;9.02;;;19.90;99.90;;;;;;5037225;28;20547;-58
2022/09/13 12:19:30;;;;;;;12.00;8.57;;;19.90;99.90;;;;;;5021607;28;20038;-63
2022/09/13 12:21:58;;;;;;;9.85;7.47;;;19.90;99.90;;;;;;5021549;28;20102;-58
2022/09/13 12:24:51;;;;;;;11.90;8.50;;;20.00;99.90;;;;;;5021737;28;20176;-58
2022/09/13 12:27:27;;;;;;;11.13;8.75;;;20.00;99.90;;;;;;5033696;28;20113;-59
2022/09/13 12:30:08;;;;;;;10.18;8.00;;;20.10;99.90;;;;;;5036034;28;20084;-59
2022/09/13 12:32:37;;;;;;;11.45;8.15;;;20.10;99.90;;;;;;4685978;28;10000144;-59
2022/09/13 12:35:06;;;;;;;11.23;6.63;;;20.10;99.90;;;;;;5037040;28;20115;-58
2022/09/13 12:37:51;;;;;;;9.65;6.65;;;20.20;99.90;;;;;;5036971;28;20097;-59
2022/09/13 12:40:52;;;;;;;8.45;7.43;;;20.20;99.90;;;;;;5037976;28;20072;-60
2022/09/13 12:43:35;;;;;;;11.73;6.75;;;20.30;99.90;;;;;;5031657;28;20211;-59
2022/09/13 12:47:12;;;;;;;11.45;7.20;;;20.30;99.90;;;;;;5031929;28;20061;-60
2022/09/13 12:50:07;;;;;;;10.43;6.72;;;20.30;99.90;;;;;;4919329;29;20071;-60
2022/09/13 12:53:32;;;;;;;14.65;6.50;;;20.40;99.90;;;;;;5033372;28;20034;-60
2022/09/13 12:56:18;;;;;;;8.90;5.93;;;20.40;99.90;;;;;;5004072;28;20033;-59
2022/09/13 12:59:10;;;;;;;10.07;6.03;;;20.40;99.90;;;;;;5016541;28;20089;-60
2022/09/13 13:01:37;;;;;;;14.05;6.45;;;20.40;99.90;;;;;;5036358;28;20049;-60
2022/09/13 13:04:28;;;;;;;13.68;5.97;;;20.40;99.90;;;;;;5033051;28;20093;-60
2022/09/13 13:07:06;;;;;;;8.00;5.72;;;20.30;99.90;;;;;;5030718;28;20072;-58
2022/09/13 13:09:41;;;;;;;6.75;5.88;;;20.30;99.90;;;;;;5033975;28;20113;-59
2022/09/13 13:12:31;;;;;;;10.05;6.20;;;20.30;99.90;;;;;;5033772;28;20041;-58
2022/09/13 13:14:59;;;;;;;6.78;5.95;;;20.30;99.90;;;;;;5015561;28;20109;-61
2022/09/13 13:17:38;;;;;;;8.45;6.57;;;20.30;99.90;;;;;;5033933;28;20044;-59
2022/09/13 13:20:42;;;;;;;12.57;7.13;;;20.20;99.90;;;;;;5034475;28;20125;-58